Time;durP1;ratioP1;P1;durP2;ratioP2;P2;SDS_P1;SDS_P2;PMS_P1;PMS_P2;Temp;Humidity;BMP_temperature;BMP_pressure;BME280_temperature;BME280_humidity;BME280_pressure;Samples;Min_cycle;Max_cycle;Signal;HPM_P1;HPM_P2
2020/12/30 00:00:48;;;;;;;4.50;2.40;;;5.00;99.90;;;;;;4944083;28;20247;-92
2020/12/30 00:03:20;;;;;;;3.00;2.03;;;5.00;99.90;;;;;;4945509;29;20267;-91
2020/12/30 00:05:50;;;;;;;5.17;3.00;;;5.00;99.90;;;;;;5585024;23;20208;-89
2020/12/30 00:08:22;;;;;;;3.90;2.67;;;5.00;99.90;;;;;;4946574;28;20205;-91
2020/12/30 00:10:55;;;;;;;6.70;2.80;;;5.10;99.90;;;;;;4928633;28;20213;-95
2020/12/30 00:13:26;;;;;;;3.27;2.30;;;5.00;99.90;;;;;;4919448;29;20233;-93
2020/12/30 00:15:56;;;;;;;4.27;3.00;;;5.00;99.90;;;;;;4922805;29;20220;-94
2020/12/30 00:18:26;;;;;;;4.47;2.80;;;4.90;99.90;;;;;;4922057;29;20224;-94
2020/12/30 00:20:58;;;;;;;4.53;2.57;;;4.90;99.90;;;;;;4922440;29;20652;-94
2020/12/30 00:23:29;;;;;;;5.97;2.73;;;4.90;99.90;;;;;;4920815;29;20221;-94
2020/12/30 00:26:00;;;;;;;4.47;2.73;;;4.90;99.90;;;;;;4925383;29;20254;-92
2020/12/30 00:28:30;;;;;;;3.87;2.27;;;4.90;99.90;;;;;;4942462;28;20208;-91
2020/12/30 00:31:01;;;;;;;3.30;2.40;;;4.90;99.90;;;;;;4955708;28;20250;-91
2020/12/30 00:33:32;;;;;;;3.93;2.47;;;4.90;99.90;;;;;;4942385;28;20331;-91
2020/12/30 00:36:02;;;;;;;2.93;2.40;;;4.90;99.90;;;;;;4918800;29;20264;-94
2020/12/30 00:38:34;;;;;;;2.43;2.13;;;4.90;99.90;;;;;;4918629;29;20589;-94
2020/12/30 00:41:03;;;;;;;4.33;2.30;;;4.80;99.90;;;;;;4919931;29;20299;-94
2020/12/30 00:43:34;;;;;;;5.23;2.40;;;4.80;99.90;;;;;;4919568;29;20291;-93
2020/12/30 00:46:05;;;;;;;3.83;2.47;;;4.80;99.90;;;;;;4941815;29;20250;-94
2020/12/30 00:48:35;;;;;;;2.77;2.20;;;4.80;99.90;;;;;;4961727;28;20239;-94
2020/12/30 00:51:07;;;;;;;3.37;2.40;;;4.70;99.90;;;;;;4959763;28;20236;-91
2020/12/30 00:53:38;;;;;;;4.87;2.00;;;4.70;99.90;;;;;;4937490;28;20204;-92
2020/12/30 00:56:10;;;;;;;2.70;1.90;;;4.70;99.90;;;;;;4945177;29;20209;-91
2020/12/30 00:58:42;;;;;;;2.97;2.10;;;4.70;99.90;;;;;;4954335;29;20272;-92
2020/12/30 01:01:14;;;;;;;4.10;2.10;;;4.70;99.90;;;;;;4942196;29;20236;-91
2020/12/30 01:03:46;;;;;;;4.57;2.17;;;4.70;99.90;;;;;;4923012;29;20217;-91
2020/12/30 01:06:17;;;;;;;3.03;2.10;;;4.70;99.90;;;;;;4922518;29;20269;-91
2020/12/30 01:08:49;;;;;;;2.60;1.97;;;4.60;99.90;;;;;;4923299;29;20193;-91
2020/12/30 01:11:26;;;;;;;3.73;2.20;;;4.60;99.90;;;;;;4949035;29;20663;-94
2020/12/30 01:13:58;;;;;;;2.50;2.00;;;4.60;99.90;;;;;;4963142;28;20626;-94
2020/12/30 01:16:30;;;;;;;4.10;2.27;;;4.60;99.90;;;;;;4958245;28;20209;-94
2020/12/30 01:19:00;;;;;;;2.90;1.90;;;4.60;99.90;;;;;;4935384;29;20243;-93
2020/12/30 01:21:31;;;;;;;2.63;2.20;;;4.60;99.90;;;;;;4926924;29;20662;-94
2020/12/30 01:24:04;;;;;;;3.43;1.80;;;4.50;99.90;;;;;;4925922;29;20549;-94
2020/12/30 01:26:34;;;;;;;3.17;2.27;;;4.50;99.90;;;;;;4940423;29;20239;-91
2020/12/30 01:29:05;;;;;;;3.00;2.10;;;4.50;99.90;;;;;;4924519;28;20212;-91
2020/12/30 01:31:36;;;;;;;4.07;2.57;;;4.50;99.90;;;;;;4933180;29;20582;-92
2020/12/30 01:34:07;;;;;;;3.70;2.60;;;4.50;99.90;;;;;;4939454;28;20220;-91
2020/12/30 01:36:39;;;;;;;7.60;3.33;;;4.40;99.90;;;;;;4948047;29;20208;-94
2020/12/30 01:39:15;;;;;;;5.23;3.27;;;4.40;99.90;;;;;;4948104;28;20208;-93
2020/12/30 01:41:49;;;;;;;4.23;3.23;;;4.50;99.90;;;;;;4936763;29;20331;-96
2020/12/30 01:44:20;;;;;;;5.47;3.30;;;4.40;99.90;;;;;;4934264;29;20227;-94
2020/12/30 01:46:53;;;;;;;5.77;3.47;;;4.50;99.90;;;;;;4943942;28;20242;-96
2020/12/30 01:49:27;;;;;;;5.17;3.63;;;4.50;99.90;;;;;;4954682;28;20212;-95
2020/12/30 01:51:58;;;;;;;4.47;2.97;;;4.50;99.90;;;;;;4962124;28;20276;-96
2020/12/30 02:02:35;;;;;;;11.50;4.63;;;4.40;99.90;;;;;;5391809;23;20246;-96
2020/12/30 02:05:13;;;;;;;7.40;3.80;;;4.50;99.90;;;;;;4977055;28;20245;-93
2020/12/30 02:07:44;;;;;;;7.83;3.60;;;4.50;99.90;;;;;;4965500;28;20213;-94
2020/12/30 02:10:18;;;;;;;10.77;5.07;;;4.50;99.90;;;;;;4952959;28;20200;-94
2020/12/30 02:12:51;;;;;;;7.67;4.83;;;4.50;99.90;;;;;;4958765;28;20204;-95
2020/12/30 02:15:30;;;;;;;10.23;5.03;;;4.40;99.90;;;;;;4954866;28;20219;-94
2020/12/30 02:18:03;;;;;;;9.53;4.47;;;4.50;99.90;;;;;;4960578;28;20255;-94
2020/12/30 02:20:40;;;;;;;11.13;4.57;;;4.50;99.90;;;;;;4964302;28;20270;-92
2020/12/30 02:23:13;;;;;;;8.50;5.27;;;4.50;99.90;;;;;;4961810;28;20372;-93
2020/12/30 02:25:46;;;;;;;10.70;4.50;;;4.50;99.90;;;;;;4962880;28;20267;-96
2020/12/30 02:28:17;;;;;;;5.80;4.27;;;4.50;99.90;;;;;;4962391;28;20843;-96
2020/12/30 02:30:48;;;;;;;9.40;4.70;;;4.50;99.90;;;;;;4966772;28;20199;-96
2020/12/30 02:33:20;;;;;;;7.67;5.10;;;4.50;99.90;;;;;;4975085;28;20214;-96
2020/12/30 02:35:53;;;;;;;13.00;4.90;;;4.60;99.90;;;;;;4963894;28;20255;-96
2020/12/30 02:38:25;;;;;;;11.03;4.37;;;4.50;99.90;;;;;;4968032;28;20208;-96
2020/12/30 02:41:05;;;;;;;10.40;5.07;;;4.50;99.90;;;;;;4963573;28;20223;-96
2020/12/30 02:43:38;;;;;;;10.87;4.87;;;4.50;99.90;;;;;;4961796;29;20199;-96
2020/12/30 02:46:11;;;;;;;12.67;4.57;;;4.40;99.90;;;;;;4947222;28;20220;-95
2020/12/30 02:48:41;;;;;;;12.50;5.43;;;4.40;99.90;;;;;;4961979;28;20733;-95
2020/12/30 02:51:14;;;;;;;7.73;4.30;;;4.40;99.90;;;;;;4964771;28;20226;-96
2020/12/30 02:53:46;;;;;;;10.70;5.10;;;4.40;99.90;;;;;;4962747;28;20604;-95
2020/12/30 02:56:21;;;;;;;14.50;5.60;;;4.40;99.90;;;;;;4960578;28;20208;-96
2020/12/30 02:58:52;;;;;;;9.80;5.03;;;4.40;99.90;;;;;;4970614;28;20219;-96
2020/12/30 03:01:26;;;;;;;12.10;5.83;;;4.40;99.90;;;;;;4955941;28;20228;-96
2020/12/30 03:03:56;;;;;;;8.50;5.00;;;4.30;99.90;;;;;;4965855;28;20200;-96
2020/12/30 03:06:27;;;;;;;14.87;5.53;;;4.40;99.90;;;;;;4967660;28;20263;-96
2020/12/30 03:09:00;;;;;;;10.67;5.10;;;4.40;99.90;;;;;;4964650;28;20211;-92
2020/12/30 04:27:16;;;;;;;7.13;5.60;;;4.30;99.90;;;;;;4934876;29;20225;-96
2020/12/30 04:29:49;;;;;;;9.07;5.90;;;4.30;99.90;;;;;;4923190;29;20223;-96
2020/12/30 04:32:22;;;;;;;12.77;8.90;;;4.40;99.90;;;;;;4935984;29;20277;-96
2020/12/30 04:45:37;;;;;;;10.47;5.40;;;4.40;99.90;;;;;;4954357;29;20637;-96
2020/12/30 04:48:12;;;;;;;8.37;5.20;;;4.40;99.90;;;;;;4926708;29;20201;-96
2020/12/30 04:50:44;;;;;;;6.07;5.23;;;4.50;99.90;;;;;;4944900;29;20238;-96
2020/12/30 04:53:23;;;;;;;7.67;5.13;;;4.50;99.90;;;;;;4944935;29;20205;-96
2020/12/30 04:56:02;;;;;;;8.57;5.33;;;4.50;99.90;;;;;;4949884;28;20200;-96
2020/12/30 04:58:35;;;;;;;8.13;5.50;;;4.50;99.90;;;;;;4946748;29;20294;-96
2020/12/30 05:01:11;;;;;;;5.00;4.50;;;4.50;99.90;;;;;;4946753;29;20255;-96
2020/12/30 05:06:19;;;;;;;6.80;4.43;;;4.60;99.90;;;;;;4633549;23;10001984;-94
2020/12/30 05:08:52;;;;;;;7.23;4.57;;;4.60;99.90;;;;;;4948732;28;20216;-95
2020/12/30 05:11:24;;;;;;;6.53;4.33;;;4.60;99.90;;;;;;4944242;29;20903;-94
2020/12/30 05:13:55;;;;;;;5.77;4.50;;;4.60;99.90;;;;;;4941081;29;20264;-96
2020/12/30 05:16:30;;;;;;;8.37;5.43;;;4.70;99.90;;;;;;4951839;28;20208;-94
2020/12/30 05:21:37;;;;;;;6.60;4.23;;;4.70;99.90;;;;;;4971289;23;20243;-94
2020/12/30 05:24:13;;;;;;;9.83;4.73;;;4.70;99.90;;;;;;4919152;29;20209;-93
2020/12/30 05:26:45;;;;;;;7.33;4.67;;;4.70;99.90;;;;;;4922527;29;20293;-93
2020/12/30 05:29:16;;;;;;;6.23;4.83;;;4.70;99.90;;;;;;4919571;29;20616;-96
2020/12/30 05:31:53;;;;;;;6.53;4.60;;;4.70;99.90;;;;;;4920113;29;20350;-95
2020/12/30 05:34:25;;;;;;;16.17;5.13;;;4.70;99.90;;;;;;4923553;29;20200;-96
2020/12/30 05:36:57;;;;;;;6.23;4.90;;;4.70;99.90;;;;;;4923067;29;21122;-95
2020/12/30 05:39:33;;;;;;;6.23;4.70;;;4.70;99.90;;;;;;4925336;29;20264;-93
2020/12/30 05:42:12;;;;;;;7.60;5.20;;;4.70;99.90;;;;;;4921609;29;20312;-90
2020/12/30 05:44:43;;;;;;;6.70;4.63;;;4.70;99.90;;;;;;4912970;29;20214;-90
2020/12/30 05:47:16;;;;;;;7.57;4.90;;;4.80;99.90;;;;;;4926154;29;20344;-90
2020/12/30 05:49:47;;;;;;;10.07;4.77;;;4.80;99.90;;;;;;4938048;29;20193;-91
2020/12/30 05:52:23;;;;;;;5.23;4.57;;;4.70;99.90;;;;;;4938492;29;20205;-95
2020/12/30 05:54:59;;;;;;;6.73;4.67;;;4.70;99.90;;;;;;4936892;29;20197;-92
2020/12/30 05:57:31;;;;;;;5.57;4.60;;;4.70;99.90;;;;;;4928292;29;20272;-92
2020/12/30 06:00:07;;;;;;;6.83;4.33;;;4.80;99.90;;;;;;4926379;29;20224;-92
2020/12/30 06:02:43;;;;;;;5.27;4.37;;;4.80;99.90;;;;;;4922828;29;20295;-87
2020/12/30 06:05:16;;;;;;;6.43;4.50;;;4.80;99.90;;;;;;4921947;29;20209;-91
2020/12/30 06:07:48;;;;;;;5.40;3.93;;;4.80;99.90;;;;;;4919476;29;20239;-93
2020/12/30 06:10:20;;;;;;;4.73;3.73;;;4.80;99.90;;;;;;4919956;29;20197;-89
2020/12/30 06:12:55;;;;;;;4.37;3.60;;;4.80;99.90;;;;;;4924721;29;20201;-90
2020/12/30 06:15:26;;;;;;;4.60;3.30;;;4.80;99.90;;;;;;4918907;29;20236;-91
2020/12/30 06:18:09;;;;;;;3.80;2.93;;;4.80;99.90;;;;;;4919779;29;20209;-92
2020/12/30 06:20:43;;;;;;;5.80;2.93;;;4.80;99.90;;;;;;4921454;29;20229;-95
2020/12/30 06:23:16;;;;;;;3.83;3.23;;;4.80;99.90;;;;;;4920702;29;20217;-93
2020/12/30 06:25:48;;;;;;;5.33;3.30;;;4.80;99.90;;;;;;4920312;29;20197;-94
2020/12/30 06:28:20;;;;;;;4.97;3.50;;;4.90;99.90;;;;;;4919552;29;20242;-94
2020/12/30 06:30:53;;;;;;;5.63;4.17;;;4.90;99.90;;;;;;4920331;29;20663;-92
2020/12/30 06:33:27;;;;;;;5.87;3.90;;;4.80;99.90;;;;;;4924160;29;20216;-96
2020/12/30 06:35:59;;;;;;;4.60;3.90;;;4.80;99.90;;;;;;4932039;29;20272;-96
2020/12/30 06:38:31;;;;;;;5.80;4.10;;;4.80;99.90;;;;;;4927181;28;20220;-96
2020/12/30 06:41:27;;;;;;;4.57;3.70;;;4.90;99.90;;;;;;4927341;29;20229;-96
2020/12/30 06:43:58;;;;;;;4.03;3.40;;;4.80;99.90;;;;;;4930836;29;20269;-96
2020/12/30 06:46:36;;;;;;;4.80;3.83;;;4.80;99.90;;;;;;4930851;29;20237;-96
2020/12/30 06:49:12;;;;;;;6.23;3.80;;;4.90;99.90;;;;;;4923101;29;20205;-94
2020/12/30 06:51:45;;;;;;;4.77;3.87;;;4.90;99.90;;;;;;4925063;29;20197;-95
2020/12/30 06:54:16;;;;;;;5.27;3.90;;;4.90;99.90;;;;;;4923793;29;20205;-94
2020/12/30 06:56:48;;;;;;;7.53;4.20;;;5.00;99.90;;;;;;4928235;29;20189;-94
2020/12/30 06:59:29;;;;;;;5.17;4.00;;;4.90;99.90;;;;;;4922576;29;20877;-94
2020/12/30 07:02:04;;;;;;;4.37;3.97;;;4.90;99.90;;;;;;4931326;29;20213;-93
2020/12/30 07:04:37;;;;;;;5.53;4.23;;;5.00;99.90;;;;;;4929307;29;20289;-95
2020/12/30 07:07:21;;;;;;;9.40;5.17;;;4.90;99.90;;;;;;4924183;29;20202;-95
2020/12/30 07:09:52;;;;;;;9.13;5.33;;;4.90;99.90;;;;;;4925239;29;20205;-94
2020/12/30 07:12:23;;;;;;;8.13;5.57;;;4.90;99.90;;;;;;4932535;29;20298;-95
2020/12/30 07:14:58;;;;;;;6.50;5.27;;;4.90;99.90;;;;;;4923311;29;20265;-96
2020/12/30 07:17:30;;;;;;;8.80;5.60;;;4.90;99.90;;;;;;4930884;29;20268;-96
2020/12/30 07:20:21;;;;;;;9.13;5.80;;;4.90;99.90;;;;;;4932223;29;20256;-96
2020/12/30 07:22:52;;;;;;;11.17;7.03;;;4.90;99.90;;;;;;4931802;29;20224;-96
2020/12/30 07:25:28;;;;;;;10.67;7.10;;;4.90;99.90;;;;;;4930636;28;20216;-95
2020/12/30 07:28:20;;;;;;;12.23;7.43;;;5.00;99.90;;;;;;4930182;29;20213;-95
2020/12/30 07:39:28;;;;;;;45.20;20.77;;;4.90;99.90;;;;;;5803270;23;20234;-95
2020/12/30 07:42:04;;;;;;;12.60;8.93;;;5.00;99.90;;;;;;4934571;29;20239;-96
2020/12/30 07:44:51;;;;;;;10.00;8.03;;;4.90;99.90;;;;;;4932237;29;20213;-94
2020/12/30 16:10:42;;;;;;;2.10;1.90;;;4.60;99.90;;;;;;4933169;29;20219;-96
2020/12/30 16:13:14;;;;;;;2.63;1.80;;;4.60;99.90;;;;;;4937955;29;20200;-96
2020/12/30 16:45:27;;;;;;;2.40;2.07;;;4.40;99.90;;;;;;5807592;23;20275;-92
2020/12/30 16:48:09;;;;;;;2.73;2.10;;;4.40;99.90;;;;;;4973686;28;20239;-94
2020/12/30 16:50:49;;;;;;;2.40;1.97;;;4.50;99.90;;;;;;4969677;28;20207;-96
2020/12/30 16:53:22;;;;;;;1.27;1.17;;;4.50;99.90;;;;;;4980715;28;20206;-95
2020/12/30 16:55:56;;;;;;;0.80;0.70;;;4.70;99.90;;;;;;4968870;28;20215;-94
2020/12/30 16:58:28;;;;;;;1.70;1.03;;;4.80;99.90;;;;;;4973192;28;20206;-94
2020/12/30 17:01:00;;;;;;;1.00;0.60;;;4.90;99.90;;;;;;4971056;28;20208;-95
2020/12/30 17:03:39;;;;;;;0.70;0.40;;;5.00;99.90;;;;;;4970734;28;20195;-96
2020/12/30 17:06:16;;;;;;;0.50;0.50;;;5.00;99.90;;;;;;4977902;28;20287;-95
2020/12/30 17:08:48;;;;;;;0.47;0.47;;;5.10;99.90;;;;;;4974606;28;20219;-94
2020/12/30 17:11:19;;;;;;;1.90;0.70;;;5.10;99.90;;;;;;4966737;28;20195;-93
2020/12/30 17:13:50;;;;;;;0.50;0.50;;;5.20;99.90;;;;;;4975516;28;20235;-91
2020/12/30 17:16:38;;;;;;;0.73;0.50;;;5.30;99.90;;;;;;4980216;28;20287;-94
2020/12/30 17:21:41;;;;;;;2.30;0.60;;;5.40;99.90;;;;;;4963042;28;20250;-92
2020/12/30 17:24:13;;;;;;;0.43;0.43;;;5.40;99.90;;;;;;4967204;28;20192;-96
2020/12/30 17:26:58;;;;;;;0.50;0.40;;;5.50;99.90;;;;;;4963001;28;20192;-93
2020/12/30 17:29:33;;;;;;;2.00;0.50;;;5.50;99.90;;;;;;4968855;28;20202;-96
2020/12/30 17:48:35;;;;;;;1.13;0.60;;;5.60;99.90;;;;;;5010075;23;20253;-96
2020/12/30 17:51:10;;;;;;;2.40;0.50;;;5.60;99.90;;;;;;4969332;28;20211;-96
2020/12/30 17:53:42;;;;;;;0.83;0.40;;;5.60;99.90;;;;;;4972051;28;20444;-96
2020/12/30 17:56:17;;;;;;;0.60;0.43;;;5.60;99.90;;;;;;4980855;28;20223;-96
2020/12/30 17:58:48;;;;;;;4.63;0.80;;;5.70;99.90;;;;;;4977861;28;20282;-96
2020/12/30 18:01:22;;;;;;;5.23;0.80;;;5.60;99.90;;;;;;4977655;28;20236;-96
2020/12/30 18:03:55;;;;;;;4.10;0.70;;;5.60;99.90;;;;;;4975370;28;20199;-96
2020/12/30 18:06:26;;;;;;;1.50;0.50;;;5.60;99.90;;;;;;4975665;28;20215;-96
2020/12/30 18:08:57;;;;;;;2.17;0.63;;;5.60;99.90;;;;;;4970586;28;20211;-95
2020/12/30 18:11:38;;;;;;;2.00;0.87;;;5.60;99.90;;;;;;4969561;28;20220;-96
2020/12/30 18:14:11;;;;;;;0.93;0.60;;;5.60;99.90;;;;;;4982183;28;20211;-96
2020/12/30 18:16:43;;;;;;;1.70;0.70;;;5.50;99.90;;;;;;4976672;28;20214;-95
2020/12/30 18:25:15;;;;;;;4.67;0.70;;;5.60;99.90;;;;;;4984305;28;20204;-94
2020/12/30 18:30:29;;;;;;;1.27;0.60;;;5.80;99.90;;;;;;5020643;23;20265;-96
2020/12/30 18:33:03;;;;;;;2.57;0.60;;;5.80;99.90;;;;;;4974689;28;20218;-96
2020/12/30 18:35:48;;;;;;;6.87;1.13;;;5.70;99.90;;;;;;4973808;28;20207;-96
2020/12/30 18:38:20;;;;;;;0.70;0.60;;;5.70;99.90;;;;;;4968412;28;20211;-93
2020/12/30 18:40:55;;;;;;;2.17;0.70;;;5.70;99.90;;;;;;4975393;28;20219;-95
2020/12/30 18:43:29;;;;;;;3.67;0.90;;;5.70;99.90;;;;;;4976505;28;20220;-93
2020/12/30 18:45:59;;;;;;;3.30;1.30;;;5.60;99.90;;;;;;4974966;28;20279;-96
2020/12/30 18:48:44;;;;;;;;;;;;;;;;;;;;;
2020/12/30 18:51:17;;;;;;;3.23;1.73;;;5.80;99.90;;;;;;4978569;28;20259;-96
2020/12/30 18:53:57;;;;;;;3.93;2.30;;;5.80;99.90;;;;;;4974681;28;20192;-96
2020/12/30 19:02:11;;;;;;;6.77;2.50;;;5.90;99.90;;;;;;5464442;23;20238;-94
2020/12/30 19:04:45;;;;;;;2.80;2.10;;;6.00;99.90;;;;;;4980334;28;20238;-96
2020/12/30 19:07:16;;;;;;;2.03;1.83;;;6.00;99.90;;;;;;4976797;28;20218;-96
2020/12/30 19:15:12;;;;;;;1.50;1.40;;;6.10;99.90;;;;;;4960241;29;20311;-93
2020/12/30 19:17:47;;;;;;;1.70;1.60;;;6.20;99.90;;;;;;4957938;28;20205;-94
2020/12/30 19:20:31;;;;;;;1.40;1.20;;;6.20;99.90;;;;;;4953428;29;20224;-95
2020/12/30 19:23:08;;;;;;;1.93;1.77;;;6.30;99.90;;;;;;4955128;29;20251;-92
2020/12/30 19:25:49;;;;;;;3.37;1.63;;;6.00;99.90;;;;;;4951746;29;20207;-94
2020/12/30 19:28:23;;;;;;;1.30;1.00;;;6.20;99.90;;;;;;4940842;29;20236;-92
2020/12/30 19:30:56;;;;;;;1.17;1.00;;;6.30;99.90;;;;;;4951150;28;20208;-95
2020/12/30 19:33:53;;;;;;;;;;;;;;;;;;;;;
2020/12/30 19:36:26;;;;;;;1.53;0.97;;;6.30;99.90;;;;;;4953023;28;20234;-95
2020/12/30 19:39:02;;;;;;;1.33;0.97;;;6.30;99.90;;;;;;4953234;29;20251;-95
2020/12/30 19:41:53;;;;;;;;;;;;;;;;;;;;;
2020/12/30 19:44:41;;;;;;;2.33;0.90;;;6.40;99.90;;;;;;5011084;23;20308;-94
2020/12/30 19:50:15;;;;;;;2.27;1.10;;;6.40;99.90;;;;;;5099106;23;20235;-96
2020/12/30 19:52:56;;;;;;;1.00;0.90;;;6.50;99.90;;;;;;5177050;23;20228;-95
2020/12/30 19:55:29;;;;;;;2.70;1.10;;;6.70;99.90;;;;;;4973949;28;20216;-96
2020/12/30 19:58:19;;;;;;;;;;;;;;;;;;;;;
2020/12/30 20:14:17;;;;;;;2.07;1.60;;;7.00;99.90;;;;;;5455440;23;20238;-94
2020/12/30 20:20:07;;;;;;;4.10;1.60;;;6.90;99.90;;;;;;5088153;23;20252;-93
2020/12/30 20:41:27;;;;;;;3.13;1.50;;;6.70;99.90;;;;;;5296145;23;20263;-95
2020/12/30 20:46:34;;;;;;;1.60;1.50;;;6.50;99.90;;;;;;5108351;23;20770;-92
2020/12/30 20:49:04;;;;;;;1.63;1.50;;;6.60;99.90;;;;;;4958535;29;20298;-94
2020/12/30 20:51:40;;;;;;;3.93;1.63;;;6.60;99.90;;;;;;4961749;28;20212;-93
2020/12/30 20:54:12;;;;;;;3.47;1.30;;;6.60;99.90;;;;;;4953785;28;20231;-92
2020/12/30 20:56:46;;;;;;;2.03;1.50;;;6.70;99.90;;;;;;4947939;28;20204;-92
2020/12/30 20:59:17;;;;;;;1.70;1.30;;;6.70;99.90;;;;;;4952099;29;20215;-92
2020/12/30 21:01:52;;;;;;;2.50;1.63;;;6.80;99.90;;;;;;4956171;28;20888;-93
2020/12/30 21:04:34;;;;;;;1.43;1.33;;;6.90;99.90;;;;;;4959802;29;20204;-94
2020/12/30 21:07:05;;;;;;;1.77;1.30;;;6.80;99.90;;;;;;4961920;28;20216;-92
2020/12/30 21:09:41;;;;;;;3.07;1.30;;;6.80;99.90;;;;;;4960595;29;20261;-93
2020/12/30 21:12:14;;;;;;;1.07;0.97;;;6.80;99.90;;;;;;4956586;29;20214;-91
2020/12/30 21:15:13;;;;;;;1.20;1.10;;;6.90;99.90;;;;;;4951611;29;20211;-95
2020/12/30 22:15:03;;;;;;;2.77;1.90;;;6.70;99.90;;;;;;4957167;28;20208;-94
2020/12/30 22:17:44;;;;;;;7.93;2.00;;;6.80;99.90;;;;;;4956526;28;20219;-95
2020/12/30 22:20:18;;;;;;;1.43;1.17;;;6.70;99.90;;;;;;4952113;29;20768;-96
2020/12/30 22:22:49;;;;;;;2.87;1.43;;;6.70;99.90;;;;;;4949839;29;20240;-96
2020/12/30 22:25:21;;;;;;;5.20;1.70;;;6.70;99.90;;;;;;4950313;29;20202;-96
2020/12/30 22:27:52;;;;;;;7.57;2.53;;;6.70;99.90;;;;;;4947750;29;20206;-95
2020/12/30 22:30:28;;;;;;;2.77;1.97;;;6.70;99.90;;;;;;4951859;29;20204;-96
2020/12/30 22:33:00;;;;;;;3.80;2.03;;;6.70;99.90;;;;;;4948699;29;20529;-96
2020/12/30 22:35:32;;;;;;;6.73;2.40;;;6.70;99.90;;;;;;4952341;29;20208;-96
2020/12/30 22:38:03;;;;;;;3.53;1.60;;;6.70;99.90;;;;;;4949915;28;20204;-96
2020/12/30 22:40:35;;;;;;;4.70;1.90;;;6.70;99.90;;;;;;4945993;29;20245;-94
2020/12/30 22:43:05;;;;;;;3.00;1.90;;;6.70;99.90;;;;;;4949459;29;20238;-94
2020/12/30 22:45:38;;;;;;;1.87;1.50;;;6.70;99.90;;;;;;4946920;29;20276;-95
2020/12/30 22:48:08;;;;;;;1.60;1.10;;;6.70;99.90;;;;;;4948125;29;20213;-93
2020/12/30 22:50:41;;;;;;;0.70;0.60;;;6.60;99.90;;;;;;4943711;29;20236;-92
2020/12/30 22:53:12;;;;;;;1.70;0.97;;;6.60;99.90;;;;;;4950585;28;20213;-92
2020/12/30 22:55:46;;;;;;;1.83;0.80;;;6.50;99.90;;;;;;4947032;29;20223;-93
2020/12/30 22:58:22;;;;;;;3.57;1.00;;;6.40;99.90;;;;;;4945282;29;20228;-92
2020/12/30 23:00:59;;;;;;;3.47;1.73;;;6.50;99.90;;;;;;4947581;29;20282;-94
2020/12/30 23:03:31;;;;;;;1.53;1.03;;;6.50;99.90;;;;;;4942679;29;20267;-93
2020/12/30 23:06:01;;;;;;;1.23;1.10;;;6.50;99.90;;;;;;4948708;29;20209;-93
2020/12/30 23:08:32;;;;;;;1.30;1.20;;;6.50;99.90;;;;;;4945710;29;20291;-93
2020/12/30 23:11:04;;;;;;;3.30;1.50;;;6.50;99.90;;;;;;4947240;29;20243;-92
2020/12/30 23:13:36;;;;;;;2.90;1.20;;;6.50;99.90;;;;;;4944569;28;20302;-92
2020/12/30 23:16:11;;;;;;;1.87;1.10;;;6.50;99.90;;;;;;4943648;29;20204;-92
2020/12/30 23:18:42;;;;;;;1.53;1.10;;;6.50;99.90;;;;;;4945470;29;20291;-96
2020/12/30 23:21:17;;;;;;;2.27;1.10;;;6.40;99.90;;;;;;4952640;29;20192;-96
2020/12/30 23:23:49;;;;;;;2.13;1.20;;;6.40;99.90;;;;;;4946493;29;20239;-96
2020/12/30 23:56:05;;;;;;;2.83;0.80;;;6.80;99.90;;;;;;5380542;23;20271;-96
2020/12/30 23:58:35;;;;;;;0.70;0.70;;;6.90;99.90;;;;;;4958684;28;20210;-96
